sensor_id;sensor_type;location;lat;lon;timestamp;pressure;altitude;pressure_sealevel;temperature
76898;BMP180;65856;52.178;21.176;2023-08-06T00:00:26;99414.20;;;20.44
76898;BMP180;65856;52.178;21.176;2023-08-06T00:02:52;99420.00;;;20.40
76898;BMP180;65856;52.178;21.176;2023-08-06T00:05:17;99417.60;;;20.44
76898;BMP180;65856;52.178;21.176;2023-08-06T00:07:44;99421.80;;;20.50
76898;BMP180;65856;52.178;21.176;2023-08-06T00:10:13;99420.60;;;20.50
76898;BMP180;65856;52.178;21.176;2023-08-06T00:12:38;99416.00;;;20.50
76898;BMP180;65856;52.178;21.176;2023-08-06T00:15:04;99406.00;;;20.50
76898;BMP180;65856;52.178;21.176;2023-08-06T00:17:30;99404.20;;;20.50
76898;BMP180;65856;52.178;21.176;2023-08-06T00:19:56;99401.80;;;20.50
76898;BMP180;65856;52.178;21.176;2023-08-06T00:22:21;99401.00;;;20.50
76898;BMP180;65856;52.178;21.176;2023-08-06T00:24:47;99396.40;;;20.50
76898;BMP180;65856;52.178;21.176;2023-08-06T00:27:12;99394.60;;;20.50
76898;BMP180;65856;52.178;21.176;2023-08-06T00:29:38;99397.80;;;20.50
76898;BMP180;65856;52.178;21.176;2023-08-06T00:32:03;99399.40;;;20.58
76898;BMP180;65856;52.178;21.176;2023-08-06T00:34:29;99406.40;;;20.58
76898;BMP180;65856;52.178;21.176;2023-08-06T00:36:54;99415.40;;;20.60
76898;BMP180;65856;52.178;21.176;2023-08-06T00:39:20;99417.20;;;20.50
76898;BMP180;65856;52.178;21.176;2023-08-06T00:41:45;99417.20;;;20.50
76898;BMP180;65856;52.178;21.176;2023-08-06T00:44:11;99411.60;;;20.50
76898;BMP180;65856;52.178;21.176;2023-08-06T00:46:37;99398.20;;;20.44
76898;BMP180;65856;52.178;21.176;2023-08-06T00:49:03;99399.40;;;20.40
76898;BMP180;65856;52.178;21.176;2023-08-06T00:51:29;99394.00;;;20.40
76898;BMP180;65856;52.178;21.176;2023-08-06T00:53:55;99390.40;;;20.42
76898;BMP180;65856;52.178;21.176;2023-08-06T00:56:21;99386.20;;;20.40
76898;BMP180;65856;52.178;21.176;2023-08-06T00:58:48;99386.20;;;20.40
76898;BMP180;65856;52.178;21.176;2023-08-06T01:01:14;99377.40;;;20.40
76898;BMP180;65856;52.178;21.176;2023-08-06T01:03:39;99373.60;;;20.40
76898;BMP180;65856;52.178;21.176;2023-08-06T01:06:05;99364.60;;;20.32
76898;BMP180;65856;52.178;21.176;2023-08-06T01:08:58;99352.80;;;20.30
76898;BMP180;65856;52.178;21.176;2023-08-06T01:11:52;99354.60;;;20.30
76898;BMP180;65856;52.178;21.176;2023-08-06T01:14:33;99352.60;;;20.30
76898;BMP180;65856;52.178;21.176;2023-08-06T01:17:23;99343.40;;;20.30
76898;BMP180;65856;52.178;21.176;2023-08-06T01:19:49;99338.60;;;20.20
76898;BMP180;65856;52.178;21.176;2023-08-06T01:22:14;99333.20;;;20.20
76898;BMP180;65856;52.178;21.176;2023-08-06T01:24:48;99314.20;;;20.20
76898;BMP180;65856;52.178;21.176;2023-08-06T01:27:28;99300.00;;;20.18
76898;BMP180;65856;52.178;21.176;2023-08-06T01:30:03;99286.60;;;20.10
76898;BMP180;65856;52.178;21.176;2023-08-06T01:32:54;99273.00;;;20.10
76898;BMP180;65856;52.178;21.176;2023-08-06T01:35:25;99261.00;;;20.10
76898;BMP180;65856;52.178;21.176;2023-08-06T01:37:52;99249.80;;;20.10
76898;BMP180;65856;52.178;21.176;2023-08-06T01:40:17;99241.40;;;20.10
76898;BMP180;65856;52.178;21.176;2023-08-06T01:42:43;99229.40;;;20.10
76898;BMP180;65856;52.178;21.176;2023-08-06T01:45:09;99221.40;;;20.10
76898;BMP180;65856;52.178;21.176;2023-08-06T01:47:36;99217.80;;;20.10
76898;BMP180;65856;52.178;21.176;2023-08-06T01:50:02;99213.00;;;20.10
76898;BMP180;65856;52.178;21.176;2023-08-06T01:52:28;99206.20;;;20.08
76898;BMP180;65856;52.178;21.176;2023-08-06T01:54:54;99203.60;;;20.00
76898;BMP180;65856;52.178;21.176;2023-08-06T01:57:20;99201.00;;;20.00
76898;BMP180;65856;52.178;21.176;2023-08-06T01:59:45;99192.20;;;20.00
76898;BMP180;65856;52.178;21.176;2023-08-06T02:02:12;99189.20;;;20.00
76898;BMP180;65856;52.178;21.176;2023-08-06T02:04:37;99193.40;;;20.00
76898;BMP180;65856;52.178;21.176;2023-08-06T02:07:03;99194.60;;;19.92
76898;BMP180;65856;52.178;21.176;2023-08-06T02:09:29;99197.00;;;19.98
76898;BMP180;65856;52.178;21.176;2023-08-06T02:11:54;99186.40;;;20.00
76898;BMP180;65856;52.178;21.176;2023-08-06T02:14:20;99183.00;;;20.00
76898;BMP180;65856;52.178;21.176;2023-08-06T02:16:45;99179.00;;;20.00
76898;BMP180;65856;52.178;21.176;2023-08-06T02:19:11;99173.80;;;20.00
76898;BMP180;65856;52.178;21.176;2023-08-06T02:21:36;99160.20;;;20.00
76898;BMP180;65856;52.178;21.176;2023-08-06T02:24:02;99158.40;;;20.00
76898;BMP180;65856;52.178;21.176;2023-08-06T02:26:28;99155.40;;;20.00
76898;BMP180;65856;52.178;21.176;2023-08-06T02:28:53;99155.40;;;20.00
76898;BMP180;65856;52.178;21.176;2023-08-06T02:31:19;99159.40;;;20.04
76898;BMP180;65856;52.178;21.176;2023-08-06T02:33:44;99155.60;;;20.10
76898;BMP180;65856;52.178;21.176;2023-08-06T02:36:10;99155.80;;;20.10
76898;BMP180;65856;52.178;21.176;2023-08-06T02:38:35;99153.60;;;20.10
76898;BMP180;65856;52.178;21.176;2023-08-06T02:41:04;99156.00;;;20.10
76898;BMP180;65856;52.178;21.176;2023-08-06T02:43:30;99152.40;;;20.10
76898;BMP180;65856;52.178;21.176;2023-08-06T02:46:00;99150.20;;;20.10
76898;BMP180;65856;52.178;21.176;2023-08-06T02:48:26;99149.80;;;20.12
76898;BMP180;65856;52.178;21.176;2023-08-06T02:50:52;99147.80;;;20.14
76898;BMP180;65856;52.178;21.176;2023-08-06T02:53:18;99146.00;;;20.20
76898;BMP180;65856;52.178;21.176;2023-08-06T02:55:47;99140.60;;;20.14
76898;BMP180;65856;52.178;21.176;2023-08-06T02:58:14;99137.80;;;20.10
76898;BMP180;65856;52.178;21.176;2023-08-06T03:00:41;99129.80;;;20.10
76898;BMP180;65856;52.178;21.176;2023-08-06T03:03:07;99125.80;;;20.10
76898;BMP180;65856;52.178;21.176;2023-08-06T03:05:32;99122.40;;;20.14
76898;BMP180;65856;52.178;21.176;2023-08-06T03:07:58;99118.20;;;20.14
76898;BMP180;65856;52.178;21.176;2023-08-06T03:10:23;99111.20;;;20.10
76898;BMP180;65856;52.178;21.176;2023-08-06T03:12:49;99103.80;;;20.16
76898;BMP180;65856;52.178;21.176;2023-08-06T03:15:14;99104.40;;;20.20
76898;BMP180;65856;52.178;21.176;2023-08-06T03:17:40;99093.40;;;20.20
76898;BMP180;65856;52.178;21.176;2023-08-06T03:20:06;99084.20;;;20.20
76898;BMP180;65856;52.178;21.176;2023-08-06T03:22:32;99073.40;;;20.20
76898;BMP180;65856;52.178;21.176;2023-08-06T03:24:57;99066.60;;;20.20
76898;BMP180;65856;52.178;21.176;2023-08-06T03:27:23;99062.20;;;20.20
76898;BMP180;65856;52.178;21.176;2023-08-06T03:29:52;99056.80;;;20.20
76898;BMP180;65856;52.178;21.176;2023-08-06T03:32:17;99054.20;;;20.20
76898;BMP180;65856;52.178;21.176;2023-08-06T03:34:43;99051.80;;;20.22
76898;BMP180;65856;52.178;21.176;2023-08-06T03:37:08;99045.40;;;20.30
76898;BMP180;65856;52.178;21.176;2023-08-06T03:39:34;99041.80;;;20.26
76898;BMP180;65856;52.178;21.176;2023-08-06T03:41:59;99027.40;;;20.20
76898;BMP180;65856;52.178;21.176;2023-08-06T03:44:25;99020.40;;;20.28
76898;BMP180;65856;52.178;21.176;2023-08-06T03:46:52;99015.80;;;20.30
76898;BMP180;65856;52.178;21.176;2023-08-06T03:49:17;99010.80;;;20.30
76898;BMP180;65856;52.178;21.176;2023-08-06T03:51:43;99007.00;;;20.30
76898;BMP180;65856;52.178;21.176;2023-08-06T03:54:08;99006.40;;;20.30
76898;BMP180;65856;52.178;21.176;2023-08-06T03:56:34;99003.60;;;20.30
76898;BMP180;65856;52.178;21.176;2023-08-06T03:58:59;98998.60;;;20.20
76898;BMP180;65856;52.178;21.176;2023-08-06T04:01:25;98990.40;;;20.30
76898;BMP180;65856;52.178;21.176;2023-08-06T04:03:50;98986.00;;;20.30
76898;BMP180;65856;52.178;21.176;2023-08-06T04:06:16;98982.60;;;20.30
76898;BMP180;65856;52.178;21.176;2023-08-06T04:08:41;98976.40;;;20.30
76898;BMP180;65856;52.178;21.176;2023-08-06T04:11:07;98974.60;;;20.30
76898;BMP180;65856;52.178;21.176;2023-08-06T04:13:33;98972.00;;;20.30
76898;BMP180;65856;52.178;21.176;2023-08-06T04:16:02;98966.80;;;20.32
76898;BMP180;65856;52.178;21.176;2023-08-06T04:18:28;98962.20;;;20.40
76898;BMP180;65856;52.178;21.176;2023-08-06T04:20:53;98960.20;;;20.38
76898;BMP180;65856;52.178;21.176;2023-08-06T04:23:20;98955.40;;;20.40
76898;BMP180;65856;52.178;21.176;2023-08-06T04:25:46;98957.20;;;20.40
76898;BMP180;65856;52.178;21.176;2023-08-06T04:28:11;98953.80;;;20.50
76898;BMP180;65856;52.178;21.176;2023-08-06T04:30:37;98952.20;;;20.50
76898;BMP180;65856;52.178;21.176;2023-08-06T04:33:03;98951.20;;;20.52
76898;BMP180;65856;52.178;21.176;2023-08-06T04:35:28;98938.80;;;20.58
76898;BMP180;65856;52.178;21.176;2023-08-06T04:37:54;98932.40;;;20.60
76898;BMP180;65856;52.178;21.176;2023-08-06T04:40:19;98930.60;;;20.60
76898;BMP180;65856;52.178;21.176;2023-08-06T04:42:45;98923.80;;;20.70
76898;BMP180;65856;52.178;21.176;2023-08-06T04:45:10;98917.20;;;20.70
76898;BMP180;65856;52.178;21.176;2023-08-06T04:47:36;98924.60;;;20.80
76898;BMP180;65856;52.178;21.176;2023-08-06T04:50:01;98913.20;;;20.90
76898;BMP180;65856;52.178;21.176;2023-08-06T04:52:27;98909.80;;;20.90
76898;BMP180;65856;52.178;21.176;2023-08-06T04:54:54;98909.20;;;21.00
76898;BMP180;65856;52.178;21.176;2023-08-06T04:57:20;98905.40;;;21.00
76898;BMP180;65856;52.178;21.176;2023-08-06T04:59:46;98905.00;;;21.10
76898;BMP180;65856;52.178;21.176;2023-08-06T05:02:12;98894.60;;;21.18
76898;BMP180;65856;52.178;21.176;2023-08-06T05:04:37;98894.40;;;21.30
76898;BMP180;65856;52.178;21.176;2023-08-06T05:07:05;98893.80;;;21.30
76898;BMP180;65856;52.178;21.176;2023-08-06T05:09:31;98892.00;;;21.42
76898;BMP180;65856;52.178;21.176;2023-08-06T05:11:57;98885.80;;;21.60
76898;BMP180;65856;52.178;21.176;2023-08-06T05:14:22;98885.60;;;21.76
76898;BMP180;65856;52.178;21.176;2023-08-06T05:16:48;98878.20;;;21.90
76898;BMP180;65856;52.178;21.176;2023-08-06T05:19:13;98871.00;;;22.00
76898;BMP180;65856;52.178;21.176;2023-08-06T05:21:39;98868.40;;;22.10
76898;BMP180;65856;52.178;21.176;2023-08-06T05:24:04;98871.40;;;22.30
76898;BMP180;65856;52.178;21.176;2023-08-06T05:26:30;98866.00;;;22.40
76898;BMP180;65856;52.178;21.176;2023-08-06T05:28:55;98866.00;;;22.60
76898;BMP180;65856;52.178;21.176;2023-08-06T05:31:21;98868.40;;;22.70
76898;BMP180;65856;52.178;21.176;2023-08-06T05:33:46;98869.40;;;22.80
76898;BMP180;65856;52.178;21.176;2023-08-06T05:36:12;98865.20;;;22.98
76898;BMP180;65856;52.178;21.176;2023-08-06T05:38:37;98855.20;;;23.10
76898;BMP180;65856;52.178;21.176;2023-08-06T05:41:03;98854.60;;;23.30
76898;BMP180;65856;52.178;21.176;2023-08-06T05:43:29;98847.80;;;23.40
76898;BMP180;65856;52.178;21.176;2023-08-06T05:45:55;98844.60;;;23.60
76898;BMP180;65856;52.178;21.176;2023-08-06T05:48:21;98841.00;;;23.70
76898;BMP180;65856;52.178;21.176;2023-08-06T05:50:49;98842.80;;;23.80
76898;BMP180;65856;52.178;21.176;2023-08-06T05:53:15;98835.40;;;23.90
76898;BMP180;65856;52.178;21.176;2023-08-06T05:55:40;98830.80;;;23.96
76898;BMP180;65856;52.178;21.176;2023-08-06T05:58:06;98831.60;;;24.10
76898;BMP180;65856;52.178;21.176;2023-08-06T06:00:32;98830.00;;;24.22
76898;BMP180;65856;52.178;21.176;2023-08-06T06:02:57;98829.00;;;24.30
76898;BMP180;65856;52.178;21.176;2023-08-06T06:05:22;98830.00;;;24.40
76898;BMP180;65856;52.178;21.176;2023-08-06T06:07:48;98829.60;;;24.58
76898;BMP180;65856;52.178;21.176;2023-08-06T06:10:13;98828.20;;;24.70
76898;BMP180;65856;52.178;21.176;2023-08-06T06:12:40;98827.60;;;24.94
76898;BMP180;65856;52.178;21.176;2023-08-06T06:15:06;98831.00;;;25.10
76898;BMP180;65856;52.178;21.176;2023-08-06T06:17:32;98830.40;;;25.30
76898;BMP180;65856;52.178;21.176;2023-08-06T06:19:58;98833.20;;;25.40
76898;BMP180;65856;52.178;21.176;2023-08-06T06:22:23;98822.00;;;25.50
76898;BMP180;65856;52.178;21.176;2023-08-06T06:24:49;98819.60;;;25.60
76898;BMP180;65856;52.178;21.176;2023-08-06T06:27:14;98816.60;;;25.70
76898;BMP180;65856;52.178;21.176;2023-08-06T06:29:40;98809.80;;;25.90
76898;BMP180;65856;52.178;21.176;2023-08-06T06:32:06;98813.60;;;26.06
76898;BMP180;65856;52.178;21.176;2023-08-06T06:34:31;98801.60;;;26.20
76898;BMP180;65856;52.178;21.176;2023-08-06T06:36:57;98807.20;;;26.30
76898;BMP180;65856;52.178;21.176;2023-08-06T06:39:23;98805.40;;;26.40
76898;BMP180;65856;52.178;21.176;2023-08-06T06:41:48;98802.00;;;26.40
76898;BMP180;65856;52.178;21.176;2023-08-06T06:44:14;98798.60;;;26.50
76898;BMP180;65856;52.178;21.176;2023-08-06T06:46:40;98798.00;;;26.60
76898;BMP180;65856;52.178;21.176;2023-08-06T06:49:06;98790.20;;;26.80
76898;BMP180;65856;52.178;21.176;2023-08-06T06:51:31;98785.20;;;26.90
76898;BMP180;65856;52.178;21.176;2023-08-06T06:53:57;98793.20;;;27.00
76898;BMP180;65856;52.178;21.176;2023-08-06T06:56:23;98797.40;;;27.20
76898;BMP180;65856;52.178;21.176;2023-08-06T06:58:48;98795.00;;;27.30
76898;BMP180;65856;52.178;21.176;2023-08-06T07:01:14;98796.00;;;27.40
76898;BMP180;65856;52.178;21.176;2023-08-06T07:03:40;98794.00;;;27.40
76898;BMP180;65856;52.178;21.176;2023-08-06T07:06:06;98795.40;;;27.40
76898;BMP180;65856;52.178;21.176;2023-08-06T07:08:32;98798.80;;;27.40
76898;BMP180;65856;52.178;21.176;2023-08-06T07:11:02;98794.00;;;27.40
76898;BMP180;65856;52.178;21.176;2023-08-06T07:13:30;98794.00;;;27.50
76898;BMP180;65856;52.178;21.176;2023-08-06T07:15:55;98784.40;;;27.70
76898;BMP180;65856;52.178;21.176;2023-08-06T07:18:22;98789.40;;;27.82
76898;BMP180;65856;52.178;21.176;2023-08-06T07:20:53;98790.80;;;28.00
76898;BMP180;65856;52.178;21.176;2023-08-06T07:23:21;98797.80;;;28.10
76898;BMP180;65856;52.178;21.176;2023-08-06T07:25:48;98789.20;;;28.10
76898;BMP180;65856;52.178;21.176;2023-08-06T07:28:15;98790.60;;;28.10
76898;BMP180;65856;52.178;21.176;2023-08-06T07:30:42;98786.00;;;28.00
76898;BMP180;65856;52.178;21.176;2023-08-06T07:33:09;98789.00;;;28.00
76898;BMP180;65856;52.178;21.176;2023-08-06T07:35:35;98788.80;;;28.10
76898;BMP180;65856;52.178;21.176;2023-08-06T07:38:02;98778.40;;;28.24
76898;BMP180;65856;52.178;21.176;2023-08-06T07:40:28;98781.80;;;28.30
76898;BMP180;65856;52.178;21.176;2023-08-06T07:42:54;98783.60;;;28.40
76898;BMP180;65856;52.178;21.176;2023-08-06T07:45:20;98781.40;;;28.50
76898;BMP180;65856;52.178;21.176;2023-08-06T07:47:46;98782.20;;;28.66
76898;BMP180;65856;52.178;21.176;2023-08-06T07:50:13;98775.80;;;28.72
76898;BMP180;65856;52.178;21.176;2023-08-06T07:52:39;98772.20;;;28.90
76898;BMP180;65856;52.178;21.176;2023-08-06T07:55:05;98775.60;;;29.12
76898;BMP180;65856;52.178;21.176;2023-08-06T07:57:32;98775.00;;;29.20
76898;BMP180;65856;52.178;21.176;2023-08-06T07:59:58;98770.40;;;29.40
76898;BMP180;65856;52.178;21.176;2023-08-06T08:02:24;98765.00;;;29.50
76898;BMP180;65856;52.178;21.176;2023-08-06T08:04:50;98763.80;;;29.70
76898;BMP180;65856;52.178;21.176;2023-08-06T08:07:16;98761.20;;;29.80
76898;BMP180;65856;52.178;21.176;2023-08-06T08:09:41;98759.80;;;29.90
76898;BMP180;65856;52.178;21.176;2023-08-06T08:12:07;98765.40;;;30.02
76898;BMP180;65856;52.178;21.176;2023-08-06T08:14:33;98758.20;;;30.10
76898;BMP180;65856;52.178;21.176;2023-08-06T08:17:03;98759.60;;;30.10
76898;BMP180;65856;52.178;21.176;2023-08-06T08:19:29;98754.80;;;30.10
76898;BMP180;65856;52.178;21.176;2023-08-06T08:21:55;98754.80;;;30.18
76898;BMP180;65856;52.178;21.176;2023-08-06T08:24:21;98752.00;;;30.20
76898;BMP180;65856;52.178;21.176;2023-08-06T08:26:52;98756.60;;;30.40
76898;BMP180;65856;52.178;21.176;2023-08-06T08:29:22;98749.40;;;30.50
76898;BMP180;65856;52.178;21.176;2023-08-06T08:31:48;98753.40;;;30.62
76898;BMP180;65856;52.178;21.176;2023-08-06T08:34:16;98746.00;;;30.80
76898;BMP180;65856;52.178;21.176;2023-08-06T08:36:42;98743.40;;;30.80
76898;BMP180;65856;52.178;21.176;2023-08-06T08:39:08;98749.00;;;30.90
76898;BMP180;65856;52.178;21.176;2023-08-06T08:41:37;98749.00;;;30.90
76898;BMP180;65856;52.178;21.176;2023-08-06T08:44:08;98747.00;;;30.82
76898;BMP180;65856;52.178;21.176;2023-08-06T08:46:40;98747.20;;;30.64
76898;BMP180;65856;52.178;21.176;2023-08-06T08:49:06;98742.00;;;30.50
76898;BMP180;65856;52.178;21.176;2023-08-06T08:51:34;98748.00;;;30.50
76898;BMP180;65856;52.178;21.176;2023-08-06T08:54:03;98746.20;;;30.30
76898;BMP180;65856;52.178;21.176;2023-08-06T08:56:30;98742.40;;;30.20
76898;BMP180;65856;52.178;21.176;2023-08-06T08:58:56;98735.00;;;30.20
76898;BMP180;65856;52.178;21.176;2023-08-06T09:01:22;98738.60;;;30.32
76898;BMP180;65856;52.178;21.176;2023-08-06T09:03:49;98731.80;;;30.40
76898;BMP180;65856;52.178;21.176;2023-08-06T09:06:18;98727.40;;;30.40
76898;BMP180;65856;52.178;21.176;2023-08-06T09:09:12;98722.60;;;30.20
76898;BMP180;65856;52.178;21.176;2023-08-06T09:11:44;98720.80;;;30.10
76898;BMP180;65856;52.178;21.176;2023-08-06T09:14:11;98723.80;;;30.20
76898;BMP180;65856;52.178;21.176;2023-08-06T09:16:38;98723.20;;;30.32
76898;BMP180;65856;52.178;21.176;2023-08-06T09:19:11;98718.40;;;30.54
76898;BMP180;65856;52.178;21.176;2023-08-06T09:21:46;98711.60;;;30.60
76898;BMP180;65856;52.178;21.176;2023-08-06T09:24:15;98716.00;;;30.60
76898;BMP180;65856;52.178;21.176;2023-08-06T09:26:44;98718.00;;;30.50
76898;BMP180;65856;52.178;21.176;2023-08-06T09:29:11;98715.60;;;30.40
76898;BMP180;65856;52.178;21.176;2023-08-06T09:31:50;98711.60;;;30.20
76898;BMP180;65856;52.178;21.176;2023-08-06T09:34:22;98714.60;;;30.10
76898;BMP180;65856;52.178;21.176;2023-08-06T09:36:52;98702.00;;;30.14
76898;BMP180;65856;52.178;21.176;2023-08-06T09:39:21;98696.80;;;30.30
76898;BMP180;65856;52.178;21.176;2023-08-06T09:41:56;98706.20;;;30.30
76898;BMP180;65856;52.178;21.176;2023-08-06T09:44:25;98704.00;;;30.20
76898;BMP180;65856;52.178;21.176;2023-08-06T09:47:01;98702.20;;;30.20
76898;BMP180;65856;52.178;21.176;2023-08-06T09:51:57;98701.60;;;30.40
76898;BMP180;65856;52.178;21.176;2023-08-06T09:54:28;98684.20;;;30.50
76898;BMP180;65856;52.178;21.176;2023-08-06T09:56:55;98697.80;;;30.60
76898;BMP180;65856;52.178;21.176;2023-08-06T09:59:23;98691.00;;;30.70
76898;BMP180;65856;52.178;21.176;2023-08-06T10:01:49;98685.60;;;30.70
76898;BMP180;65856;52.178;21.176;2023-08-06T10:04:15;98678.40;;;30.80
76898;BMP180;65856;52.178;21.176;2023-08-06T10:06:43;98668.80;;;30.90
76898;BMP180;65856;52.178;21.176;2023-08-06T10:09:12;98666.60;;;30.90
76898;BMP180;65856;52.178;21.176;2023-08-06T10:11:39;98670.00;;;31.00
76898;BMP180;65856;52.178;21.176;2023-08-06T10:14:24;98667.20;;;31.00
76898;BMP180;65856;52.178;21.176;2023-08-06T10:16:58;98660.20;;;30.80
76898;BMP180;65856;52.178;21.176;2023-08-06T10:19:26;98655.40;;;30.84
76898;BMP180;65856;52.178;21.176;2023-08-06T10:24:55;98651.80;;;30.90
76898;BMP180;65856;52.178;21.176;2023-08-06T10:27:35;98645.60;;;30.90
76898;BMP180;65856;52.178;21.176;2023-08-06T10:30:33;98645.00;;;31.00
76898;BMP180;65856;52.178;21.176;2023-08-06T10:33:04;98647.80;;;31.20
76898;BMP180;65856;52.178;21.176;2023-08-06T10:35:44;98640.00;;;31.10
76898;BMP180;65856;52.178;21.176;2023-08-06T10:38:25;98637.60;;;30.90
76898;BMP180;65856;52.178;21.176;2023-08-06T10:45:57;98627.40;;;30.80
76898;BMP180;65856;52.178;21.176;2023-08-06T10:48:45;98619.80;;;30.90
76898;BMP180;65856;52.178;21.176;2023-08-06T10:51:13;98620.80;;;30.90
76898;BMP180;65856;52.178;21.176;2023-08-06T10:53:48;98619.60;;;30.76
76898;BMP180;65856;52.178;21.176;2023-08-06T10:56:23;98624.20;;;30.62
76898;BMP180;65856;52.178;21.176;2023-08-06T10:58:53;98623.60;;;30.50
76898;BMP180;65856;52.178;21.176;2023-08-06T11:01:21;98612.60;;;30.50
76898;BMP180;65856;52.178;21.176;2023-08-06T11:03:47;98608.40;;;30.60
76898;BMP180;65856;52.178;21.176;2023-08-06T11:06:21;98604.40;;;30.80
76898;BMP180;65856;52.178;21.176;2023-08-06T11:08:53;98601.60;;;30.80
76898;BMP180;65856;52.178;21.176;2023-08-06T11:11:19;98608.60;;;30.80
76898;BMP180;65856;52.178;21.176;2023-08-06T11:13:47;98599.80;;;30.70
76898;BMP180;65856;52.178;21.176;2023-08-06T11:16:15;98592.00;;;30.60
76898;BMP180;65856;52.178;21.176;2023-08-06T11:18:43;98587.00;;;30.50
76898;BMP180;65856;52.178;21.176;2023-08-06T11:21:10;98589.00;;;30.50
76898;BMP180;65856;52.178;21.176;2023-08-06T11:23:37;98574.20;;;30.60
76898;BMP180;65856;52.178;21.176;2023-08-06T11:26:03;98572.60;;;30.70
76898;BMP180;65856;52.178;21.176;2023-08-06T11:28:29;98565.00;;;30.80
76898;BMP180;65856;52.178;21.176;2023-08-06T11:30:55;98567.60;;;30.80
76898;BMP180;65856;52.178;21.176;2023-08-06T11:33:26;98563.60;;;30.80
76898;BMP180;65856;52.178;21.176;2023-08-06T11:35:58;98573.60;;;30.70
76898;BMP180;65856;52.178;21.176;2023-08-06T11:38:29;98559.20;;;30.70
76898;BMP180;65856;52.178;21.176;2023-08-06T11:40:55;98550.60;;;30.70
76898;BMP180;65856;52.178;21.176;2023-08-06T11:43:21;98553.40;;;30.80
76898;BMP180;65856;52.178;21.176;2023-08-06T11:45:49;98556.40;;;30.80
76898;BMP180;65856;52.178;21.176;2023-08-06T11:48:16;98542.80;;;30.70
76898;BMP180;65856;52.178;21.176;2023-08-06T11:50:43;98555.80;;;30.70
76898;BMP180;65856;52.178;21.176;2023-08-06T11:53:13;98557.00;;;30.60
76898;BMP180;65856;52.178;21.176;2023-08-06T11:55:40;98554.60;;;30.64
76898;BMP180;65856;52.178;21.176;2023-08-06T11:58:06;98552.60;;;30.70
76898;BMP180;65856;52.178;21.176;2023-08-06T12:00:32;98536.20;;;30.70
76898;BMP180;65856;52.178;21.176;2023-08-06T12:02:58;98530.60;;;30.80
76898;BMP180;65856;52.178;21.176;2023-08-06T12:05:29;98520.20;;;30.84
76898;BMP180;65856;52.178;21.176;2023-08-06T12:07:58;98527.00;;;30.90
76898;BMP180;65856;52.178;21.176;2023-08-06T12:10:28;98530.80;;;30.90
76898;BMP180;65856;52.178;21.176;2023-08-06T12:12:55;98539.40;;;30.80
76898;BMP180;65856;52.178;21.176;2023-08-06T12:15:22;98533.40;;;30.70
76898;BMP180;65856;52.178;21.176;2023-08-06T12:17:49;98548.00;;;30.60
76898;BMP180;65856;52.178;21.176;2023-08-06T12:20:15;98551.40;;;30.50
76898;BMP180;65856;52.178;21.176;2023-08-06T12:22:41;98535.00;;;30.40
76898;BMP180;65856;52.178;21.176;2023-08-06T12:25:08;98535.60;;;30.30
76898;BMP180;65856;52.178;21.176;2023-08-06T12:27:38;98544.00;;;30.24
76898;BMP180;65856;52.178;21.176;2023-08-06T12:30:06;98537.20;;;30.20
76898;BMP180;65856;52.178;21.176;2023-08-06T12:32:32;98545.80;;;30.10
76898;BMP180;65856;52.178;21.176;2023-08-06T12:34:59;98546.60;;;30.00
76898;BMP180;65856;52.178;21.176;2023-08-06T12:37:25;98544.00;;;29.92
76898;BMP180;65856;52.178;21.176;2023-08-06T12:39:51;98549.20;;;29.90
76898;BMP180;65856;52.178;21.176;2023-08-06T12:42:16;98541.20;;;29.90
76898;BMP180;65856;52.178;21.176;2023-08-06T12:44:42;98527.00;;;29.80
76898;BMP180;65856;52.178;21.176;2023-08-06T12:47:08;98528.20;;;29.80
76898;BMP180;65856;52.178;21.176;2023-08-06T12:49:34;98531.00;;;29.80
76898;BMP180;65856;52.178;21.176;2023-08-06T12:52:00;98539.20;;;29.70
76898;BMP180;65856;52.178;21.176;2023-08-06T12:54:26;98528.00;;;29.70
76898;BMP180;65856;52.178;21.176;2023-08-06T12:56:53;98532.80;;;29.64
76898;BMP180;65856;52.178;21.176;2023-08-06T12:59:19;98536.00;;;29.60
76898;BMP180;65856;52.178;21.176;2023-08-06T13:01:45;98545.40;;;29.50
76898;BMP180;65856;52.178;21.176;2023-08-06T13:04:11;98535.40;;;29.50
76898;BMP180;65856;52.178;21.176;2023-08-06T13:06:37;98533.40;;;29.40
76898;BMP180;65856;52.178;21.176;2023-08-06T13:09:06;98552.40;;;29.40
76898;BMP180;65856;52.178;21.176;2023-08-06T13:11:33;98569.00;;;29.22
76898;BMP180;65856;52.178;21.176;2023-08-06T13:14:11;98588.40;;;28.82
76898;BMP180;65856;52.178;21.176;2023-08-06T13:16:41;98574.20;;;28.30
76898;BMP180;65856;52.178;21.176;2023-08-06T13:19:08;98581.60;;;27.80
76898;BMP180;65856;52.178;21.176;2023-08-06T13:24:05;98550.40;;;27.30
76898;BMP180;65856;52.178;21.176;2023-08-06T13:26:31;98554.00;;;27.20
76898;BMP180;65856;52.178;21.176;2023-08-06T13:28:58;98561.60;;;27.10
76898;BMP180;65856;52.178;21.176;2023-08-06T13:31:24;98561.60;;;27.10
76898;BMP180;65856;52.178;21.176;2023-08-06T13:33:51;98554.80;;;27.10
76898;BMP180;65856;52.178;21.176;2023-08-06T13:36:17;98552.20;;;27.10
76898;BMP180;65856;52.178;21.176;2023-08-06T13:38:43;98550.40;;;27.10
76898;BMP180;65856;52.178;21.176;2023-08-06T13:41:08;98546.80;;;27.10
76898;BMP180;65856;52.178;21.176;2023-08-06T13:43:34;98547.00;;;27.00
76898;BMP180;65856;52.178;21.176;2023-08-06T13:45:59;98549.40;;;27.00
76898;BMP180;65856;52.178;21.176;2023-08-06T13:48:25;98544.20;;;27.00
76898;BMP180;65856;52.178;21.176;2023-08-06T13:50:51;98550.60;;;27.00
76898;BMP180;65856;52.178;21.176;2023-08-06T13:53:17;98548.40;;;27.00
76898;BMP180;65856;52.178;21.176;2023-08-06T13:55:42;98548.00;;;27.00
76898;BMP180;65856;52.178;21.176;2023-08-06T13:58:08;98547.20;;;26.90
76898;BMP180;65856;52.178;21.176;2023-08-06T14:00:35;98549.00;;;26.90
76898;BMP180;65856;52.178;21.176;2023-08-06T14:03:01;98544.40;;;26.90
76898;BMP180;65856;52.178;21.176;2023-08-06T14:05:27;98554.80;;;26.90
76898;BMP180;65856;52.178;21.176;2023-08-06T14:07:53;98561.40;;;26.90
76898;BMP180;65856;52.178;21.176;2023-08-06T14:10:18;98561.80;;;26.90